Aeroporto :
LOGIN :

Iscrizione | Disclaimer

   EN    FR    IT 

 










Sommario :    VFR   VFR Marginale   IFR   IFR Intensivo   IFR Molto Intensivo
Visibilità : 
Base nubi : 
>= 8 km
>= 3000ft
5 / 8 km
1000 / 3000 ft
1500m / 5 km
500 / 1000 ft
800 / 1500m
200 / 500 ft
< 800m
< 200 ft
Simboli :   Temporali  Nebbia  Neve Forte  Precipitazioni Forti  Vento > 20 kt
SIGMETs :   Varie  Temporali  Ghiacco  Turbolenza  Onda orograficha  Ceneri Vulcaniche







- Altitudine del aeroporto : 0 ft


ETEB - Ansbach Army Heliport

ULTIMO METAR :
  • 230356Z AUTO 20003KT 9999 CLR 04/03 A3032 RMK AO2 SLP285 T00400025 $

METARs OBSOLETI :
  • 230256Z AUTO 00000KT 9999 CLR 04/03 A3033 RMK AO2 SLP288 T00420032 56005 $
  • 230156Z AUTO 19003KT 9999 CLR 05/03 A3033 RMK AO2 SLP286 T00490028 $
  • 230056Z AUTO 16004KT 9999 CLR 05/02 A3033 RMK AO2 SLP288 T00460023 $

TAF TAF ETEB
Valido dal 22 a 17 ore il 23 a 23 ore UTC


221710Z 2217/2323 VRB06KT 9999 SKC QNH3037INS
BECMG 2308/2309 29009KT 9999 FEW040 QNH3033INS TX19/2217Z TNM01/2306Z LAST NO AMDS AFT 2217 NEXT 2422
Nessun NOTAM noto per questo aeroporto.



MetMap, La meteo Aeronautica in un colpo d'occhio ! - Copyright ORBIFLY Dicembre 2007 - Disclaimer

ORBIFLY MET'MAP TEAM :

Programmazione e sviluppo : Alexandra Zaïnal
Concezione e sviluppo : Baudouin d'Aumeries
Co-Programmazione e sviluppo : Marc-Olivier Méhu
Supporto tecnico e logistico : Manuel Goepfert
Aiuto per la traduzione : Arnaldo La Scala

Contatto : metmap@orbifly.com




FONTI E CREDITI :

   NOAA